sensor_id;sensor_type;location;lat;lon;timestamp;P1;durP1;ratioP1;P2;durP2;ratioP2
16159;SDS011;8185;57.818;15.224;2023-08-31T00:01:12;3.37;;;1.90;;
16159;SDS011;8185;57.818;15.224;2023-08-31T00:03:39;4.70;;;1.63;;
16159;SDS011;8185;57.818;15.224;2023-08-31T00:06:06;4.20;;;1.30;;
16159;SDS011;8185;57.818;15.224;2023-08-31T00:08:34;3.23;;;1.73;;
16159;SDS011;8185;57.818;15.224;2023-08-31T00:11:01;2.97;;;1.67;;
16159;SDS011;8185;57.818;15.224;2023-08-31T00:13:28;1.80;;;1.53;;
16159;SDS011;8185;57.818;15.224;2023-08-31T00:15:56;2.83;;;1.80;;
16159;SDS011;8185;57.818;15.224;2023-08-31T00:18:26;2.67;;;1.63;;
16159;SDS011;8185;57.818;15.224;2023-08-31T00:20:53;4.80;;;1.20;;
16159;SDS011;8185;57.818;15.224;2023-08-31T00:23:21;3.30;;;1.60;;
16159;SDS011;8185;57.818;15.224;2023-08-31T00:25:48;1.73;;;1.60;;
16159;SDS011;8185;57.818;15.224;2023-08-31T00:28:16;1.90;;;1.40;;
16159;SDS011;8185;57.818;15.224;2023-08-31T00:30:43;1.77;;;1.33;;
16159;SDS011;8185;57.818;15.224;2023-08-31T00:33:11;2.30;;;1.50;;
16159;SDS011;8185;57.818;15.224;2023-08-31T00:35:40;2.80;;;1.60;;
16159;SDS011;8185;57.818;15.224;2023-08-31T00:38:11;1.90;;;1.60;;
16159;SDS011;8185;57.818;15.224;2023-08-31T00:40:39;4.60;;;1.70;;
16159;SDS011;8185;57.818;15.224;2023-08-31T00:43:10;1.90;;;1.57;;
16159;SDS011;8185;57.818;15.224;2023-08-31T00:45:37;4.43;;;1.77;;
16159;SDS011;8185;57.818;15.224;2023-08-31T00:48:06;5.87;;;1.63;;
16159;SDS011;8185;57.818;15.224;2023-08-31T00:50:33;2.13;;;1.53;;
16159;SDS011;8185;57.818;15.224;2023-08-31T00:53:03;5.10;;;1.50;;
16159;SDS011;8185;57.818;15.224;2023-08-31T00:55:31;1.90;;;1.50;;
16159;SDS011;8185;57.818;15.224;2023-08-31T00:57:59;1.30;;;1.20;;
16159;SDS011;8185;57.818;15.224;2023-08-31T01:00:28;5.23;;;1.50;;
16159;SDS011;8185;57.818;15.224;2023-08-31T01:02:59;3.10;;;1.30;;
16159;SDS011;8185;57.818;15.224;2023-08-31T01:05:34;2.90;;;1.33;;
16159;SDS011;8185;57.818;15.224;2023-08-31T01:08:14;5.53;;;1.50;;
16159;SDS011;8185;57.818;15.224;2023-08-31T01:11:07;3.87;;;1.80;;
16159;SDS011;8185;57.818;15.224;2023-08-31T01:13:42;5.40;;;1.60;;
16159;SDS011;8185;57.818;15.224;2023-08-31T01:16:14;3.33;;;1.77;;
16159;SDS011;8185;57.818;15.224;2023-08-31T01:18:43;3.83;;;1.60;;
16159;SDS011;8185;57.818;15.224;2023-08-31T01:21:17;5.57;;;1.63;;
16159;SDS011;8185;57.818;15.224;2023-08-31T01:23:54;1.80;;;1.70;;
16159;SDS011;8185;57.818;15.224;2023-08-31T01:26:23;3.20;;;1.70;;
16159;SDS011;8185;57.818;15.224;2023-08-31T01:28:51;2.43;;;1.80;;
16159;SDS011;8185;57.818;15.224;2023-08-31T01:31:19;2.80;;;2.20;;
16159;SDS011;8185;57.818;15.224;2023-08-31T01:33:47;4.47;;;2.07;;
16159;SDS011;8185;57.818;15.224;2023-08-31T01:36:17;2.17;;;1.57;;
16159;SDS011;8185;57.818;15.224;2023-08-31T01:38:50;3.13;;;1.77;;
16159;SDS011;8185;57.818;15.224;2023-08-31T01:41:23;7.23;;;2.10;;
16159;SDS011;8185;57.818;15.224;2023-08-31T01:43:52;4.20;;;2.27;;
16159;SDS011;8185;57.818;15.224;2023-08-31T01:46:20;4.20;;;1.90;;
16159;SDS011;8185;57.818;15.224;2023-08-31T01:48:48;3.73;;;2.00;;
16159;SDS011;8185;57.818;15.224;2023-08-31T01:51:16;2.63;;;2.20;;
16159;SDS011;8185;57.818;15.224;2023-08-31T01:53:43;2.87;;;1.77;;
16159;SDS011;8185;57.818;15.224;2023-08-31T01:56:11;2.67;;;1.90;;
16159;SDS011;8185;57.818;15.224;2023-08-31T01:58:40;4.63;;;2.30;;
16159;SDS011;8185;57.818;15.224;2023-08-31T02:01:07;4.10;;;1.90;;
16159;SDS011;8185;57.818;15.224;2023-08-31T02:03:35;2.47;;;1.73;;
16159;SDS011;8185;57.818;15.224;2023-08-31T02:06:02;6.60;;;2.27;;
16159;SDS011;8185;57.818;15.224;2023-08-31T02:08:29;1.67;;;1.50;;
16159;SDS011;8185;57.818;15.224;2023-08-31T02:10:56;2.20;;;1.90;;
16159;SDS011;8185;57.818;15.224;2023-08-31T02:13:23;6.73;;;1.70;;
16159;SDS011;8185;57.818;15.224;2023-08-31T02:15:52;4.87;;;2.47;;
16159;SDS011;8185;57.818;15.224;2023-08-31T02:18:20;6.97;;;2.00;;
16159;SDS011;8185;57.818;15.224;2023-08-31T02:20:47;8.13;;;1.53;;
16159;SDS011;8185;57.818;15.224;2023-08-31T02:23:18;6.23;;;2.10;;
16159;SDS011;8185;57.818;15.224;2023-08-31T02:25:45;3.87;;;2.00;;
16159;SDS011;8185;57.818;15.224;2023-08-31T02:28:12;7.90;;;1.87;;
16159;SDS011;8185;57.818;15.224;2023-08-31T02:30:39;7.10;;;1.80;;
16159;SDS011;8185;57.818;15.224;2023-08-31T02:33:08;3.13;;;1.87;;
16159;SDS011;8185;57.818;15.224;2023-08-31T02:35:35;4.13;;;1.73;;
16159;SDS011;8185;57.818;15.224;2023-08-31T02:38:03;4.77;;;1.80;;
16159;SDS011;8185;57.818;15.224;2023-08-31T02:40:30;5.07;;;1.83;;
16159;SDS011;8185;57.818;15.224;2023-08-31T02:42:57;2.03;;;1.60;;
16159;SDS011;8185;57.818;15.224;2023-08-31T02:45:24;5.90;;;2.07;;
16159;SDS011;8185;57.818;15.224;2023-08-31T02:47:52;2.87;;;1.70;;
16159;SDS011;8185;57.818;15.224;2023-08-31T02:50:21;3.63;;;1.80;;
16159;SDS011;8185;57.818;15.224;2023-08-31T02:52:48;2.80;;;1.67;;
16159;SDS011;8185;57.818;15.224;2023-08-31T02:55:16;3.60;;;1.87;;
16159;SDS011;8185;57.818;15.224;2023-08-31T02:57:43;7.43;;;1.90;;
16159;SDS011;8185;57.818;15.224;2023-08-31T03:00:11;2.90;;;2.03;;
16159;SDS011;8185;57.818;15.224;2023-08-31T03:02:38;2.43;;;2.07;;
16159;SDS011;8185;57.818;15.224;2023-08-31T03:05:06;3.40;;;1.83;;
16159;SDS011;8185;57.818;15.224;2023-08-31T03:07:35;5.17;;;2.07;;
16159;SDS011;8185;57.818;15.224;2023-08-31T03:10:02;5.33;;;2.00;;
16159;SDS011;8185;57.818;15.224;2023-08-31T03:12:29;4.67;;;1.60;;
16159;SDS011;8185;57.818;15.224;2023-08-31T03:14:57;3.47;;;1.90;;
16159;SDS011;8185;57.818;15.224;2023-08-31T03:17:24;2.40;;;1.90;;
16159;SDS011;8185;57.818;15.224;2023-08-31T03:19:51;3.03;;;1.70;;
16159;SDS011;8185;57.818;15.224;2023-08-31T03:22:18;3.30;;;1.83;;
16159;SDS011;8185;57.818;15.224;2023-08-31T03:24:47;2.13;;;1.73;;
16159;SDS011;8185;57.818;15.224;2023-08-31T03:27:14;2.77;;;2.03;;
16159;SDS011;8185;57.818;15.224;2023-08-31T03:29:42;4.63;;;3.07;;
16159;SDS011;8185;57.818;15.224;2023-08-31T03:32:09;13.80;;;3.40;;
16159;SDS011;8185;57.818;15.224;2023-08-31T03:34:36;8.00;;;1.90;;
16159;SDS011;8185;57.818;15.224;2023-08-31T03:37:03;7.63;;;2.70;;
16159;SDS011;8185;57.818;15.224;2023-08-31T03:39:30;4.23;;;1.90;;
16159;SDS011;8185;57.818;15.224;2023-08-31T03:41:59;3.80;;;2.07;;
16159;SDS011;8185;57.818;15.224;2023-08-31T03:44:27;4.03;;;1.93;;
16159;SDS011;8185;57.818;15.224;2023-08-31T03:46:54;3.63;;;2.00;;
16159;SDS011;8185;57.818;15.224;2023-08-31T03:49:21;2.90;;;2.13;;
16159;SDS011;8185;57.818;15.224;2023-08-31T03:51:49;3.63;;;1.73;;
16159;SDS011;8185;57.818;15.224;2023-08-31T03:54:18;2.70;;;2.00;;
16159;SDS011;8185;57.818;15.224;2023-08-31T03:56:45;3.40;;;1.80;;
16159;SDS011;8185;57.818;15.224;2023-08-31T03:59:14;2.97;;;2.10;;
16159;SDS011;8185;57.818;15.224;2023-08-31T04:01:42;3.80;;;3.10;;
16159;SDS011;8185;57.818;15.224;2023-08-31T04:04:09;7.20;;;1.87;;
16159;SDS011;8185;57.818;15.224;2023-08-31T04:06:36;2.03;;;1.77;;
16159;SDS011;8185;57.818;15.224;2023-08-31T04:09:03;5.63;;;1.90;;
16159;SDS011;8185;57.818;15.224;2023-08-31T04:11:31;3.57;;;2.37;;
16159;SDS011;8185;57.818;15.224;2023-08-31T04:13:58;5.07;;;2.17;;
16159;SDS011;8185;57.818;15.224;2023-08-31T04:16:27;4.20;;;1.90;;
16159;SDS011;8185;57.818;15.224;2023-08-31T04:18:55;3.97;;;2.07;;
16159;SDS011;8185;57.818;15.224;2023-08-31T04:21:22;4.50;;;1.67;;
16159;SDS011;8185;57.818;15.224;2023-08-31T04:23:50;4.30;;;1.80;;
16159;SDS011;8185;57.818;15.224;2023-08-31T04:26:17;3.80;;;1.60;;
16159;SDS011;8185;57.818;15.224;2023-08-31T04:28:45;7.87;;;2.17;;
16159;SDS011;8185;57.818;15.224;2023-08-31T04:31:13;5.50;;;2.10;;
16159;SDS011;8185;57.818;15.224;2023-08-31T04:33:41;5.30;;;2.57;;
16159;SDS011;8185;57.818;15.224;2023-08-31T04:36:08;2.70;;;2.17;;
16159;SDS011;8185;57.818;15.224;2023-08-31T04:38:37;3.17;;;1.93;;
16159;SDS011;8185;57.818;15.224;2023-08-31T04:41:04;3.40;;;2.03;;
16159;SDS011;8185;57.818;15.224;2023-08-31T04:43:31;3.73;;;1.90;;
16159;SDS011;8185;57.818;15.224;2023-08-31T04:45:58;2.67;;;1.80;;
16159;SDS011;8185;57.818;15.224;2023-08-31T04:48:25;3.70;;;1.97;;
16159;SDS011;8185;57.818;15.224;2023-08-31T04:50:57;4.60;;;2.17;;
16159;SDS011;8185;57.818;15.224;2023-08-31T04:53:24;3.37;;;1.77;;
16159;SDS011;8185;57.818;15.224;2023-08-31T04:55:51;5.23;;;2.33;;
16159;SDS011;8185;57.818;15.224;2023-08-31T04:58:18;7.73;;;2.73;;
16159;SDS011;8185;57.818;15.224;2023-08-31T05:00:46;4.50;;;1.93;;
16159;SDS011;8185;57.818;15.224;2023-08-31T05:03:13;3.67;;;2.27;;
16159;SDS011;8185;57.818;15.224;2023-08-31T05:05:40;4.73;;;2.00;;
16159;SDS011;8185;57.818;15.224;2023-08-31T05:08:10;2.60;;;2.00;;
16159;SDS011;8185;57.818;15.224;2023-08-31T05:10:37;3.37;;;1.70;;
16159;SDS011;8185;57.818;15.224;2023-08-31T05:13:04;3.93;;;2.20;;
16159;SDS011;8185;57.818;15.224;2023-08-31T05:15:31;3.33;;;1.80;;
16159;SDS011;8185;57.818;15.224;2023-08-31T05:17:59;2.33;;;1.40;;
16159;SDS011;8185;57.818;15.224;2023-08-31T05:20:26;1.60;;;1.50;;
16159;SDS011;8185;57.818;15.224;2023-08-31T05:22:53;3.97;;;1.63;;
16159;SDS011;8185;57.818;15.224;2023-08-31T05:25:22;2.33;;;1.67;;
16159;SDS011;8185;57.818;15.224;2023-08-31T05:27:49;1.73;;;1.53;;
16159;SDS011;8185;57.818;15.224;2023-08-31T05:30:16;5.47;;;1.37;;
16159;SDS011;8185;57.818;15.224;2023-08-31T05:32:43;1.40;;;1.23;;
16159;SDS011;8185;57.818;15.224;2023-08-31T05:35:11;2.17;;;1.27;;
16159;SDS011;8185;57.818;15.224;2023-08-31T05:37:38;1.63;;;1.20;;
16159;SDS011;8185;57.818;15.224;2023-08-31T05:40:06;4.17;;;1.30;;
16159;SDS011;8185;57.818;15.224;2023-08-31T05:42:37;1.80;;;1.17;;
16159;SDS011;8185;57.818;15.224;2023-08-31T05:45:04;2.70;;;1.20;;
16159;SDS011;8185;57.818;15.224;2023-08-31T05:47:32;5.50;;;1.43;;
16159;SDS011;8185;57.818;15.224;2023-08-31T05:50:00;1.93;;;1.20;;
16159;SDS011;8185;57.818;15.224;2023-08-31T05:52:28;2.60;;;1.00;;
16159;SDS011;8185;57.818;15.224;2023-08-31T05:54:55;1.90;;;1.40;;
16159;SDS011;8185;57.818;15.224;2023-08-31T05:57:22;1.40;;;1.27;;
16159;SDS011;8185;57.818;15.224;2023-08-31T05:59:51;2.63;;;1.07;;
16159;SDS011;8185;57.818;15.224;2023-08-31T06:02:18;1.90;;;1.23;;
16159;SDS011;8185;57.818;15.224;2023-08-31T06:04:45;3.93;;;1.13;;
16159;SDS011;8185;57.818;15.224;2023-08-31T06:07:13;3.07;;;1.47;;
16159;SDS011;8185;57.818;15.224;2023-08-31T06:09:40;3.87;;;1.60;;
16159;SDS011;8185;57.818;15.224;2023-08-31T06:12:07;3.73;;;1.07;;
16159;SDS011;8185;57.818;15.224;2023-08-31T06:14:34;3.43;;;1.40;;
16159;SDS011;8185;57.818;15.224;2023-08-31T06:17:03;1.67;;;1.10;;
16159;SDS011;8185;57.818;15.224;2023-08-31T06:19:30;2.23;;;1.37;;
16159;SDS011;8185;57.818;15.224;2023-08-31T06:21:57;4.10;;;1.70;;
16159;SDS011;8185;57.818;15.224;2023-08-31T06:24:24;3.00;;;1.40;;
16159;SDS011;8185;57.818;15.224;2023-08-31T06:26:52;1.70;;;1.27;;
16159;SDS011;8185;57.818;15.224;2023-08-31T06:29:20;2.80;;;1.20;;
16159;SDS011;8185;57.818;15.224;2023-08-31T06:31:47;1.43;;;1.27;;
16159;SDS011;8185;57.818;15.224;2023-08-31T06:34:16;4.23;;;1.13;;
16159;SDS011;8185;57.818;15.224;2023-08-31T06:36:43;1.77;;;1.20;;
16159;SDS011;8185;57.818;15.224;2023-08-31T06:39:10;2.43;;;1.60;;
16159;SDS011;8185;57.818;15.224;2023-08-31T06:41:38;6.17;;;2.50;;
16159;SDS011;8185;57.818;15.224;2023-08-31T06:44:05;7.10;;;1.63;;
16159;SDS011;8185;57.818;15.224;2023-08-31T06:46:33;2.40;;;1.83;;
16159;SDS011;8185;57.818;15.224;2023-08-31T06:49:03;3.53;;;1.70;;
16159;SDS011;8185;57.818;15.224;2023-08-31T06:51:33;2.13;;;1.23;;
16159;SDS011;8185;57.818;15.224;2023-08-31T06:54:00;3.70;;;1.20;;
16159;SDS011;8185;57.818;15.224;2023-08-31T06:56:31;8.17;;;1.27;;
16159;SDS011;8185;57.818;15.224;2023-08-31T06:58:59;3.03;;;0.90;;
16159;SDS011;8185;57.818;15.224;2023-08-31T07:01:27;4.23;;;1.13;;
16159;SDS011;8185;57.818;15.224;2023-08-31T07:03:55;2.53;;;1.20;;
16159;SDS011;8185;57.818;15.224;2023-08-31T07:06:22;4.33;;;1.40;;
16159;SDS011;8185;57.818;15.224;2023-08-31T07:08:51;2.77;;;1.03;;
16159;SDS011;8185;57.818;15.224;2023-08-31T07:11:18;2.30;;;1.00;;
16159;SDS011;8185;57.818;15.224;2023-08-31T07:13:46;3.47;;;1.10;;
16159;SDS011;8185;57.818;15.224;2023-08-31T07:16:13;1.73;;;1.10;;
16159;SDS011;8185;57.818;15.224;2023-08-31T07:18:40;2.30;;;1.00;;
16159;SDS011;8185;57.818;15.224;2023-08-31T07:21:08;2.07;;;1.10;;
16159;SDS011;8185;57.818;15.224;2023-08-31T07:23:35;2.40;;;0.90;;
16159;SDS011;8185;57.818;15.224;2023-08-31T07:26:04;1.93;;;1.03;;
16159;SDS011;8185;57.818;15.224;2023-08-31T07:28:32;2.63;;;1.03;;
16159;SDS011;8185;57.818;15.224;2023-08-31T07:31:02;2.27;;;0.80;;
16159;SDS011;8185;57.818;15.224;2023-08-31T07:33:30;4.63;;;0.97;;
16159;SDS011;8185;57.818;15.224;2023-08-31T07:35:58;0.90;;;0.80;;
16159;SDS011;8185;57.818;15.224;2023-08-31T07:38:26;2.43;;;1.10;;
16159;SDS011;8185;57.818;15.224;2023-08-31T07:40:53;1.30;;;0.90;;
16159;SDS011;8185;57.818;15.224;2023-08-31T07:43:22;1.87;;;1.10;;
16159;SDS011;8185;57.818;15.224;2023-08-31T07:45:49;1.63;;;1.10;;
16159;SDS011;8185;57.818;15.224;2023-08-31T07:48:17;4.73;;;1.13;;
16159;SDS011;8185;57.818;15.224;2023-08-31T07:50:45;2.73;;;0.80;;
16159;SDS011;8185;57.818;15.224;2023-08-31T07:53:12;1.10;;;0.80;;
16159;SDS011;8185;57.818;15.224;2023-08-31T07:55:40;0.87;;;0.80;;
16159;SDS011;8185;57.818;15.224;2023-08-31T07:58:07;0.83;;;0.70;;
16159;SDS011;8185;57.818;15.224;2023-08-31T08:00:35;2.63;;;1.00;;
16159;SDS011;8185;57.818;15.224;2023-08-31T08:03:04;1.03;;;0.63;;
16159;SDS011;8185;57.818;15.224;2023-08-31T08:05:32;4.40;;;1.10;;
16159;SDS011;8185;57.818;15.224;2023-08-31T08:07:59;1.23;;;1.00;;
16159;SDS011;8185;57.818;15.224;2023-08-31T08:10:26;1.17;;;0.83;;
16159;SDS011;8185;57.818;15.224;2023-08-31T08:12:53;3.90;;;1.10;;
16159;SDS011;8185;57.818;15.224;2023-08-31T08:15:21;1.77;;;1.33;;
16159;SDS011;8185;57.818;15.224;2023-08-31T08:17:50;1.07;;;0.77;;
16159;SDS011;8185;57.818;15.224;2023-08-31T08:20:19;2.67;;;0.87;;
16159;SDS011;8185;57.818;15.224;2023-08-31T08:22:46;2.10;;;0.90;;
16159;SDS011;8185;57.818;15.224;2023-08-31T08:25:17;1.40;;;0.80;;
16159;SDS011;8185;57.818;15.224;2023-08-31T08:27:44;1.73;;;0.70;;
16159;SDS011;8185;57.818;15.224;2023-08-31T08:30:12;2.27;;;0.77;;
16159;SDS011;8185;57.818;15.224;2023-08-31T08:32:40;2.40;;;0.87;;
16159;SDS011;8185;57.818;15.224;2023-08-31T08:35:09;1.47;;;0.80;;
16159;SDS011;8185;57.818;15.224;2023-08-31T08:37:36;2.80;;;0.70;;
16159;SDS011;8185;57.818;15.224;2023-08-31T08:40:04;1.73;;;0.80;;
16159;SDS011;8185;57.818;15.224;2023-08-31T08:42:33;2.73;;;0.63;;
16159;SDS011;8185;57.818;15.224;2023-08-31T08:45:08;1.40;;;0.60;;
16159;SDS011;8185;57.818;15.224;2023-08-31T08:47:42;2.60;;;0.60;;
16159;SDS011;8185;57.818;15.224;2023-08-31T08:50:11;3.40;;;0.90;;
16159;SDS011;8185;57.818;15.224;2023-08-31T08:52:39;0.87;;;0.73;;
16159;SDS011;8185;57.818;15.224;2023-08-31T08:55:05;2.00;;;1.00;;
16159;SDS011;8185;57.818;15.224;2023-08-31T08:57:34;3.50;;;1.00;;
16159;SDS011;8185;57.818;15.224;2023-08-31T09:00:02;1.07;;;0.67;;
16159;SDS011;8185;57.818;15.224;2023-08-31T09:02:30;2.67;;;0.63;;
16159;SDS011;8185;57.818;15.224;2023-08-31T09:04:57;3.23;;;0.90;;
16159;SDS011;8185;57.818;15.224;2023-08-31T09:07:26;1.67;;;0.80;;
16159;SDS011;8185;57.818;15.224;2023-08-31T09:09:56;1.20;;;0.60;;
16159;SDS011;8185;57.818;15.224;2023-08-31T09:12:25;1.67;;;0.80;;
16159;SDS011;8185;57.818;15.224;2023-08-31T09:14:58;1.83;;;0.87;;
16159;SDS011;8185;57.818;15.224;2023-08-31T09:17:26;1.03;;;0.60;;
16159;SDS011;8185;57.818;15.224;2023-08-31T09:20:04;1.43;;;0.70;;
16159;SDS011;8185;57.818;15.224;2023-08-31T09:22:33;1.73;;;0.87;;
16159;SDS011;8185;57.818;15.224;2023-08-31T09:25:00;1.13;;;0.60;;
16159;SDS011;8185;57.818;15.224;2023-08-31T09:27:28;1.53;;;0.67;;
16159;SDS011;8185;57.818;15.224;2023-08-31T09:29:56;1.00;;;0.70;;
16159;SDS011;8185;57.818;15.224;2023-08-31T09:32:24;1.50;;;0.73;;
16159;SDS011;8185;57.818;15.224;2023-08-31T09:34:51;0.93;;;0.70;;
16159;SDS011;8185;57.818;15.224;2023-08-31T09:37:18;1.00;;;0.70;;
16159;SDS011;8185;57.818;15.224;2023-08-31T09:39:47;1.80;;;0.73;;
16159;SDS011;8185;57.818;15.224;2023-08-31T09:42:14;2.30;;;0.77;;
16159;SDS011;8185;57.818;15.224;2023-08-31T09:44:42;1.77;;;0.67;;
16159;SDS011;8185;57.818;15.224;2023-08-31T09:47:10;1.90;;;0.90;;
16159;SDS011;8185;57.818;15.224;2023-08-31T09:49:39;2.43;;;0.67;;
16159;SDS011;8185;57.818;15.224;2023-08-31T09:52:09;0.93;;;0.70;;
16159;SDS011;8185;57.818;15.224;2023-08-31T09:54:36;0.90;;;0.60;;
16159;SDS011;8185;57.818;15.224;2023-08-31T09:57:06;1.37;;;0.67;;
16159;SDS011;8185;57.818;15.224;2023-08-31T09:59:35;1.00;;;0.67;;
16159;SDS011;8185;57.818;15.224;2023-08-31T10:02:04;1.17;;;0.87;;
16159;SDS011;8185;57.818;15.224;2023-08-31T10:04:34;2.38;;;0.60;;
16159;SDS011;8185;57.818;15.224;2023-08-31T10:07:03;1.83;;;0.80;;
16159;SDS011;8185;57.818;15.224;2023-08-31T10:09:32;1.60;;;0.97;;
16159;SDS011;8185;57.818;15.224;2023-08-31T10:11:59;1.50;;;0.70;;
16159;SDS011;8185;57.818;15.224;2023-08-31T10:14:31;2.20;;;0.60;;
16159;SDS011;8185;57.818;15.224;2023-08-31T10:16:59;0.75;;;0.60;;
16159;SDS011;8185;57.818;15.224;2023-08-31T10:19:27;1.67;;;0.70;;
16159;SDS011;8185;57.818;15.224;2023-08-31T10:21:54;1.45;;;0.80;;
16159;SDS011;8185;57.818;15.224;2023-08-31T10:27:23;1.13;;;0.60;;
16159;SDS011;8185;57.818;15.224;2023-08-31T10:29:51;1.10;;;0.85;;
16159;SDS011;8185;57.818;15.224;2023-08-31T10:32:19;2.85;;;0.80;;
16159;SDS011;8185;57.818;15.224;2023-08-31T10:37:32;2.05;;;0.70;;
16159;SDS011;8185;57.818;15.224;2023-08-31T10:40:06;5.20;;;0.70;;
16159;SDS011;8185;57.818;15.224;2023-08-31T10:42:43;1.40;;;0.60;;
16159;SDS011;8185;57.818;15.224;2023-08-31T10:45:12;1.05;;;0.65;;
16159;SDS011;8185;57.818;15.224;2023-08-31T10:47:40;1.55;;;0.80;;
16159;SDS011;8185;57.818;15.224;2023-08-31T10:50:17;1.53;;;0.63;;
16159;SDS011;8185;57.818;15.224;2023-08-31T10:52:46;1.75;;;0.80;;
16159;SDS011;8185;57.818;15.224;2023-08-31T10:55:14;0.60;;;0.47;;
16159;SDS011;8185;57.818;15.224;2023-08-31T10:57:41;1.15;;;0.82;;
16159;SDS011;8185;57.818;15.224;2023-08-31T11:00:09;1.10;;;0.70;;
16159;SDS011;8185;57.818;15.224;2023-08-31T11:02:41;2.22;;;1.02;;
16159;SDS011;8185;57.818;15.224;2023-08-31T11:05:10;0.97;;;0.70;;
16159;SDS011;8185;57.818;15.224;2023-08-31T11:07:39;2.33;;;0.70;;
16159;SDS011;8185;57.818;15.224;2023-08-31T11:10:08;1.10;;;0.63;;
16159;SDS011;8185;57.818;15.224;2023-08-31T11:12:40;1.60;;;0.90;;
16159;SDS011;8185;57.818;15.224;2023-08-31T11:15:10;1.48;;;0.77;;
16159;SDS011;8185;57.818;15.224;2023-08-31T11:17:40;0.97;;;0.60;;
16159;SDS011;8185;57.818;15.224;2023-08-31T11:20:08;1.50;;;0.88;;
16159;SDS011;8185;57.818;15.224;2023-08-31T11:22:39;1.67;;;0.80;;
16159;SDS011;8185;57.818;15.224;2023-08-31T11:25:08;1.20;;;0.70;;
16159;SDS011;8185;57.818;15.224;2023-08-31T11:27:38;0.70;;;0.60;;
16159;SDS011;8185;57.818;15.224;2023-08-31T11:30:11;2.57;;;0.77;;
16159;SDS011;8185;57.818;15.224;2023-08-31T11:32:45;1.77;;;0.70;;
16159;SDS011;8185;57.818;15.224;2023-08-31T11:35:13;2.33;;;0.80;;
16159;SDS011;8185;57.818;15.224;2023-08-31T11:37:41;1.20;;;0.77;;
16159;SDS011;8185;57.818;15.224;2023-08-31T11:40:09;2.27;;;0.70;;
16159;SDS011;8185;57.818;15.224;2023-08-31T11:42:36;0.90;;;0.60;;
16159;SDS011;8185;57.818;15.224;2023-08-31T11:45:04;1.07;;;0.73;;
16159;SDS011;8185;57.818;15.224;2023-08-31T11:47:32;1.73;;;0.50;;
16159;SDS011;8185;57.818;15.224;2023-08-31T11:50:02;0.87;;;0.70;;
16159;SDS011;8185;57.818;15.224;2023-08-31T11:52:30;1.52;;;0.73;;
16159;SDS011;8185;57.818;15.224;2023-08-31T11:54:57;2.33;;;1.00;;
16159;SDS011;8185;57.818;15.224;2023-08-31T11:57:25;0.83;;;0.70;;
16159;SDS011;8185;57.818;15.224;2023-08-31T11:59:56;2.60;;;0.73;;
16159;SDS011;8185;57.818;15.224;2023-08-31T12:02:23;2.17;;;0.63;;
16159;SDS011;8185;57.818;15.224;2023-08-31T12:04:50;0.57;;;0.52;;
16159;SDS011;8185;57.818;15.224;2023-08-31T12:07:19;1.58;;;0.75;;
16159;SDS011;8185;57.818;15.224;2023-08-31T12:09:47;1.13;;;0.80;;
16159;SDS011;8185;57.818;15.224;2023-08-31T12:12:15;4.10;;;0.75;;
16159;SDS011;8185;57.818;15.224;2023-08-31T12:14:46;1.77;;;0.70;;
16159;SDS011;8185;57.818;15.224;2023-08-31T12:17:13;2.90;;;0.88;;
16159;SDS011;8185;57.818;15.224;2023-08-31T12:19:45;1.10;;;0.60;;
16159;SDS011;8185;57.818;15.224;2023-08-31T12:22:12;1.33;;;0.88;;
16159;SDS011;8185;57.818;15.224;2023-08-31T12:24:41;0.88;;;0.70;;
16159;SDS011;8185;57.818;15.224;2023-08-31T12:27:08;0.93;;;0.70;;
16159;SDS011;8185;57.818;15.224;2023-08-31T12:29:36;3.35;;;0.90;;
16159;SDS011;8185;57.818;15.224;2023-08-31T12:32:03;1.13;;;0.93;;
16159;SDS011;8185;57.818;15.224;2023-08-31T12:34:31;4.78;;;1.27;;
16159;SDS011;8185;57.818;15.224;2023-08-31T12:36:58;1.88;;;1.30;;
16159;SDS011;8185;57.818;15.224;2023-08-31T12:39:28;2.28;;;1.20;;
16159;SDS011;8185;57.818;15.224;2023-08-31T12:41:56;1.38;;;1.20;;
16159;SDS011;8185;57.818;15.224;2023-08-31T12:44:25;2.50;;;1.20;;
16159;SDS011;8185;57.818;15.224;2023-08-31T12:46:52;2.03;;;0.90;;
16159;SDS011;8185;57.818;15.224;2023-08-31T12:49:19;1.40;;;0.90;;
16159;SDS011;8185;57.818;15.224;2023-08-31T12:51:48;1.65;;;1.10;;
16159;SDS011;8185;57.818;15.224;2023-08-31T12:54:16;1.20;;;1.00;;
16159;SDS011;8185;57.818;15.224;2023-08-31T12:56:43;1.40;;;0.82;;
16159;SDS011;8185;57.818;15.224;2023-08-31T12:59:12;1.67;;;0.90;;
16159;SDS011;8185;57.818;15.224;2023-08-31T13:01:39;2.30;;;0.80;;
16159;SDS011;8185;57.818;15.224;2023-08-31T13:04:06;2.15;;;1.10;;
16159;SDS011;8185;57.818;15.224;2023-08-31T13:06:34;1.58;;;1.30;;
16159;SDS011;8185;57.818;15.224;2023-08-31T13:09:01;2.67;;;1.20;;
16159;SDS011;8185;57.818;15.224;2023-08-31T13:11:31;1.35;;;1.25;;
16159;SDS011;8185;57.818;15.224;2023-08-31T13:13:58;1.95;;;1.70;;
16159;SDS011;8185;57.818;15.224;2023-08-31T13:16:27;1.55;;;1.33;;
16159;SDS011;8185;57.818;15.224;2023-08-31T13:18:54;1.23;;;1.13;;
16159;SDS011;8185;57.818;15.224;2023-08-31T13:21:21;2.55;;;1.25;;
16159;SDS011;8185;57.818;15.224;2023-08-31T13:23:48;2.97;;;1.25;;
16159;SDS011;8185;57.818;15.224;2023-08-31T13:26:15;1.83;;;1.40;;
16159;SDS011;8185;57.818;15.224;2023-08-31T13:28:42;1.52;;;1.42;;
16159;SDS011;8185;57.818;15.224;2023-08-31T13:31:10;1.98;;;1.80;;
16159;SDS011;8185;57.818;15.224;2023-08-31T13:33:39;1.13;;;1.00;;
16159;SDS011;8185;57.818;15.224;2023-08-31T13:36:08;3.40;;;0.90;;
16159;SDS011;8185;57.818;15.224;2023-08-31T13:38:35;2.55;;;0.80;;
16159;SDS011;8185;57.818;15.224;2023-08-31T13:41:02;2.38;;;0.70;;
16159;SDS011;8185;57.818;15.224;2023-08-31T13:43:29;2.57;;;0.60;;
16159;SDS011;8185;57.818;15.224;2023-08-31T13:45:57;1.37;;;0.70;;
16159;SDS011;8185;57.818;15.224;2023-08-31T13:48:24;1.07;;;0.73;;
16159;SDS011;8185;57.818;15.224;2023-08-31T13:50:53;2.20;;;0.90;;
16159;SDS011;8185;57.818;15.224;2023-08-31T13:53:20;0.83;;;0.83;;
16159;SDS011;8185;57.818;15.224;2023-08-31T13:55:47;2.77;;;1.13;;
16159;SDS011;8185;57.818;15.224;2023-08-31T13:58:14;0.97;;;0.80;;
16159;SDS011;8185;57.818;15.224;2023-08-31T14:00:42;3.17;;;1.10;;
16159;SDS011;8185;57.818;15.224;2023-08-31T14:03:09;3.63;;;0.90;;
16159;SDS011;8185;57.818;15.224;2023-08-31T14:05:36;3.93;;;1.00;;
16159;SDS011;8185;57.818;15.224;2023-08-31T14:08:05;1.27;;;0.90;;
16159;SDS011;8185;57.818;15.224;2023-08-31T14:10:33;1.67;;;0.80;;
16159;SDS011;8185;57.818;15.224;2023-08-31T14:13:00;1.47;;;0.80;;
16159;SDS011;8185;57.818;15.224;2023-08-31T14:15:27;1.90;;;0.87;;
16159;SDS011;8185;57.818;15.224;2023-08-31T14:17:54;1.83;;;1.13;;
16159;SDS011;8185;57.818;15.224;2023-08-31T14:20:21;2.50;;;1.40;;
16159;SDS011;8185;57.818;15.224;2023-08-31T14:22:49;0.90;;;0.70;;
16159;SDS011;8185;57.818;15.224;2023-08-31T14:25:18;1.77;;;0.80;;
16159;SDS011;8185;57.818;15.224;2023-08-31T14:27:46;1.93;;;1.00;;
16159;SDS011;8185;57.818;15.224;2023-08-31T14:30:14;0.70;;;0.60;;
16159;SDS011;8185;57.818;15.224;2023-08-31T14:32:41;3.50;;;0.97;;
16159;SDS011;8185;57.818;15.224;2023-08-31T14:35:08;1.00;;;0.90;;
16159;SDS011;8185;57.818;15.224;2023-08-31T14:37:35;0.63;;;0.63;;
16159;SDS011;8185;57.818;15.224;2023-08-31T14:40:03;1.93;;;0.90;;
16159;SDS011;8185;57.818;15.224;2023-08-31T14:42:34;1.33;;;0.90;;
16159;SDS011;8185;57.818;15.224;2023-08-31T14:45:02;2.30;;;0.80;;
16159;SDS011;8185;57.818;15.224;2023-08-31T14:47:30;1.37;;;1.20;;
16159;SDS011;8185;57.818;15.224;2023-08-31T14:49:57;1.67;;;1.10;;
16159;SDS011;8185;57.818;15.224;2023-08-31T14:52:24;1.30;;;0.90;;
16159;SDS011;8185;57.818;15.224;2023-08-31T14:54:52;1.37;;;0.90;;
16159;SDS011;8185;57.818;15.224;2023-08-31T14:57:19;3.77;;;1.13;;
16159;SDS011;8185;57.818;15.224;2023-08-31T14:59:48;1.87;;;0.90;;